• Join FlightAware (Why Join?)
  • Login
  • US Flag 
04:22PM EST


 

Airport Tracker/Info


-or-


 

Live Flight TrackerFlight Track Log ✈ JIA2208 ✈ 31-Jul-2013 ✈ KAGS - KCLT

Flight Track Log - Related Links

Times and Time Zones

All times are in EDT time to prevent confusion due to time zone crossing. See the JIA2208 flight status page for this flight to view local times or setup timezone preferences in your user account.

Time Position Orientation Groundspeed Altitude Reporting Facility
EDT Latitude Longitude Course Direction KTS MPH feet Rate Location/Type
05:41AM 33.3853 -81.9042 48° Northeast 343 395 4,900  Level Atlanta Center
05:42AM 33.8504 -82.0667 351° North  Level FlightAware Approximate
05:42AM 33.4489 -81.9550 326° Northwest 254 292 7,200  Level Atlanta Center
05:43AM 34.0135 -82.0933 354° North  Level FlightAware Approximate
05:43AM 33.5144 -82.0081 326° Northwest 260 299 9,700  Level Atlanta Center
05:44AM 34.1751 -82.1295 347° North  Level FlightAware Approximate
05:44AM 33.5983 -82.0286 348° North 284 327 11,500  Level Atlanta Center
05:45AM 34.3022 -82.0697 45° Northeast  Level FlightAware Approximate
05:45AM 33.6925 -82.0464 351° North 307 353 13,300  Level Atlanta Center
05:46AM 34.4172 -81.9270 48° Northeast  Level FlightAware Approximate
05:46AM 33.7972 -82.0639 352° North 339 390 15,300  Level Atlanta Center
05:47AM 33.8869 -82.0719 356° North 339 390 17,400 1,500 Climbing Atlanta Center
05:48AM 33.9758 -82.0222 25° Northeast 322 371 18,400 960 Climbing Atlanta Center
05:49AM 34.0628 -81.9675 28° Northeast 339 390 19,400 900 Climbing Atlanta Center
05:50AM 34.1556 -81.9075 28° Northeast 351 404 20,200 780 Climbing Atlanta Center
05:51AM 34.2506 -81.8500 27° Northeast 365 420 21,000 -300 Climbing Atlanta Center
05:52AM 34.3475 -81.7869 28° Northeast 370 426 19,700 -1,560 Descending Atlanta Center
05:53AM 34.4383 -81.7292 28° Northeast 375 432 17,900 -1,920 Descending Atlanta Center
05:54AM 34.5269 -81.6739 27° Northeast 363 418 15,900 -2,100 Descending Atlanta Center
05:55AM 34.5889 -81.6367 26° Northeast 353 406 14,400 -2,040 Descending Atlanta Center
05:56AM 34.6836 -81.5758 28° Northeast 355 409 12,300 -1,200 Descending Atlanta Center
05:57AM 34.7556 -81.5183 33° Northeast 336 387 12,000 -180 Descending Atlanta Center
05:58AM 34.8267 -81.4250 47° Northeast 321 369 12,000  Level Atlanta Center
05:59AM 34.8875 -81.3444 47° Northeast 327 376 12,000 -120 Level Atlanta Center
06:00AM 34.9564 -81.2561 46° Northeast 335 386 11,800 -600 Descending Atlanta Center
06:01AM 35.0214 -81.1728 46° Northeast 333 383 10,800 -1,080 Descending Atlanta Center
06:02AM 35.0861 -81.0894 46° Northeast 318 366 9,700 -900 Descending Atlanta Center
06:03AM 35.1544 -81.0642 17° North 294 338 9,000 -960 Descending Atlanta Center
06:04AM 35.2528 -81.0758 354° North 290 334 7,700 -1,380 Descending Atlanta Center
06:05AM 35.3300 -81.0833 355° North 272 313 6,200 -840 Descending Atlanta Center
06:06AM 35.4031 -81.0856 359° North 261 300 6,000 -120 Descending Atlanta Center
06:07AM 35.4742 -81.0933 355° North 232 267 6,000 -480 Level Atlanta Center
06:08AM 35.5392 -81.0986 356° North 231 266 5,100 -540 Descending Atlanta Center
06:09AM 35.5672 -81.0517 54° Northeast 240 276 5,000 -60 Descending Atlanta Center
06:10AM 35.5136 -80.9975 141° Southeast 242 278 5,000  Level Atlanta Center
06:11AM 35.4589 -80.9767 163° South 202 232 5,000 -480 Level Atlanta Center
06:12AM 35.4067 -80.9708 175° South 205 236 4,100 -1,020 Descending Atlanta Center
06:13AM 35.3503 -80.9678 177° South 199 229 3,100 -960 Descending Atlanta Center
06:14AM 35.2958 -80.9647 177° South 165 190 2,100 -840 Descending Atlanta Center
06:15AM 35.2539 -80.9586 173° South 144 166 1,400 -720 Descending Atlanta Center